createdAt,value
2023-05-15T00:00:52.749Z,45.96
2023-05-15T00:03:19.457Z,46.85
2023-05-15T00:05:46.115Z,46.25
2023-05-15T00:08:12.786Z,46.79
2023-05-15T00:10:42.798Z,47.31
2023-05-15T00:13:14.249Z,47.23
2023-05-15T00:15:40.874Z,47.01
2023-05-15T00:18:07.465Z,46.89
2023-05-15T00:20:34.095Z,47.18
2023-05-15T00:23:00.659Z,47.49
2023-05-15T00:25:27.288Z,47.68
2023-05-15T00:27:53.902Z,47.71
2023-05-15T00:30:20.670Z,48.01
2023-05-15T00:32:47.282Z,48.46
2023-05-15T00:35:13.804Z,48.63
2023-05-15T00:37:41.312Z,49.48
2023-05-15T00:40:10.525Z,49.63
2023-05-15T00:42:37.147Z,49.57
2023-05-15T00:45:08.541Z,49.70
2023-05-15T00:47:35.512Z,49.60
2023-05-15T00:50:03.148Z,49.54
2023-05-15T00:52:30.045Z,49.89
2023-05-15T00:54:56.666Z,49.71
2023-05-15T00:57:27.306Z,50.33
2023-05-15T00:59:55.918Z,50.53
2023-05-15T01:02:22.669Z,50.06
2023-05-15T01:04:49.946Z,49.37
2023-05-15T01:07:16.618Z,49.83
2023-05-15T01:09:43.892Z,50.13
2023-05-15T01:12:15.068Z,50.68
2023-05-15T01:14:41.762Z,50.57
2023-05-15T01:17:08.703Z,50.62
2023-05-15T01:19:36.495Z,50.85
2023-05-15T01:22:31.634Z,50.27
2023-05-15T01:25:19.993Z,50.06
2023-05-15T01:27:52.559Z,50.38
2023-05-15T01:30:34.899Z,50.58
2023-05-15T01:33:26.135Z,50.40
2023-05-15T01:36:02.506Z,50.18
2023-05-15T01:38:53.549Z,50.81
2023-05-15T01:41:31.601Z,50.72
2023-05-15T01:44:13.330Z,50.83
2023-05-15T01:46:44.795Z,49.89
2023-05-15T01:49:13.670Z,49.69
2023-05-15T01:51:42.661Z,48.74
2023-05-15T01:54:10.913Z,49.14
2023-05-15T01:56:40.077Z,48.82
2023-05-15T01:59:07.838Z,49.26
2023-05-15T02:01:37.400Z,49.71
2023-05-15T02:04:04.576Z,50.00
2023-05-15T02:06:32.153Z,50.61
2023-05-15T02:08:59.340Z,50.31
2023-05-15T02:11:25.840Z,50.32
2023-05-15T02:13:54.643Z,51.32
2023-05-15T02:16:21.509Z,51.82
2023-05-15T02:18:48.965Z,51.67
2023-05-15T02:21:15.929Z,51.67
2023-05-15T02:23:42.448Z,50.97
2023-05-15T02:26:27.398Z,51.25
2023-05-15T02:29:06.946Z,51.37
2023-05-15T02:32:02.149Z,51.67
2023-05-15T02:34:35.994Z,53.33
2023-05-15T02:37:04.608Z,53.45
2023-05-15T02:39:32.526Z,52.84
2023-05-15T02:42:01.172Z,53.03
2023-05-15T02:44:28.751Z,52.55
2023-05-15T02:46:57.376Z,53.95
2023-05-15T02:49:24.542Z,55.01
2023-05-15T02:51:51.180Z,55.00
2023-05-15T02:54:18.299Z,55.30
2023-05-15T02:56:44.966Z,55.90
2023-05-15T02:59:11.526Z,55.40
2023-05-15T03:01:38.231Z,55.26
2023-05-15T03:04:04.901Z,55.60
2023-05-15T03:06:31.660Z,55.10
2023-05-15T03:08:58.344Z,55.34
2023-05-15T03:11:25.225Z,55.01
2023-05-15T03:13:51.841Z,55.44
2023-05-15T03:16:18.516Z,54.37
2023-05-15T03:18:45.064Z,54.50
2023-05-15T03:21:11.699Z,54.79
2023-05-15T03:23:38.297Z,54.02
2023-05-15T03:26:04.897Z,54.32
2023-05-15T03:28:31.485Z,54.13
2023-05-15T03:30:58.147Z,54.08
2023-05-15T03:33:25.245Z,53.52
2023-05-15T03:35:52.466Z,54.58
2023-05-15T03:38:19.777Z,54.10
2023-05-15T03:40:46.314Z,54.17
2023-05-15T03:43:12.919Z,53.66
2023-05-15T03:45:40.808Z,53.92
2023-05-15T03:48:07.573Z,53.52
2023-05-15T03:50:34.116Z,53.92
2023-05-15T03:53:00.737Z,53.79
2023-05-15T03:55:27.525Z,53.72
2023-05-15T03:57:54.582Z,53.95
2023-05-15T04:00:22.031Z,53.94
2023-05-15T04:02:48.613Z,53.60
2023-05-15T04:05:15.640Z,53.44
2023-05-15T04:07:42.180Z,52.43
2023-05-15T04:10:09.066Z,53.05
2023-05-15T04:12:35.636Z,52.42
2023-05-15T04:15:24.641Z,52.33
2023-05-15T04:17:53.106Z,52.25
2023-05-15T04:20:22.908Z,52.03
2023-05-15T04:22:50.139Z,52.13
2023-05-15T04:25:18.063Z,51.89
2023-05-15T04:27:45.076Z,51.80
2023-05-15T04:30:12.637Z,51.27
2023-05-15T04:32:40.215Z,51.10
2023-05-15T04:35:13.243Z,51.28
2023-05-15T04:37:41.179Z,50.22
2023-05-15T04:40:09.194Z,50.96
2023-05-15T04:42:37.772Z,50.80
2023-05-15T04:45:05.840Z,50.19
2023-05-15T04:47:32.483Z,50.07
2023-05-15T04:49:59.149Z,50.18
2023-05-15T04:52:25.763Z,50.43
2023-05-15T04:54:53.463Z,51.44
2023-05-15T04:57:20.151Z,51.32
2023-05-15T04:59:46.802Z,51.02
2023-05-15T05:02:13.360Z,51.54
2023-05-15T05:04:42.906Z,51.98
2023-05-15T05:07:09.521Z,51.35
2023-05-15T05:09:36.060Z,51.70
2023-05-15T05:12:02.765Z,50.94
2023-05-15T05:14:29.492Z,51.01
2023-05-15T05:16:56.142Z,51.72
2023-05-15T05:19:22.779Z,51.50
2023-05-15T05:21:49.359Z,51.93
2023-05-15T05:24:16.025Z,51.53
2023-05-15T05:26:45.597Z,51.33
2023-05-15T05:29:12.195Z,51.26
2023-05-15T05:31:38.878Z,53.17
2023-05-15T05:34:05.639Z,53.22
2023-05-15T05:36:32.159Z,52.80
2023-05-15T05:38:59.115Z,53.72
2023-05-15T05:41:25.854Z,54.40
2023-05-15T05:43:52.460Z,54.03
2023-05-15T05:46:19.223Z,54.21
2023-05-15T05:48:45.823Z,54.03
2023-05-15T05:51:12.356Z,54.28
2023-05-15T05:53:39.670Z,54.56
2023-05-15T05:56:06.822Z,54.59
2023-05-15T05:58:33.438Z,54.97
2023-05-15T06:01:00.793Z,54.75
2023-05-15T06:03:27.803Z,54.61
2023-05-15T06:05:54.570Z,54.94
2023-05-15T06:08:21.138Z,55.17
2023-05-15T06:10:48.153Z,55.80
2023-05-15T06:13:15.133Z,54.73
2023-05-15T06:15:42.329Z,54.87
2023-05-15T06:18:09.054Z,54.88
2023-05-15T06:20:35.841Z,54.94
2023-05-15T06:23:02.422Z,54.41
2023-05-15T06:25:29.068Z,54.92
2023-05-15T06:27:55.762Z,56.75
2023-05-15T06:30:22.496Z,57.17
2023-05-15T06:32:49.158Z,57.80
2023-05-15T06:35:15.996Z,57.62
2023-05-15T06:37:42.595Z,58.08
2023-05-15T06:40:09.696Z,58.67
2023-05-15T06:42:36.250Z,59.71
2023-05-15T06:45:02.942Z,59.92
2023-05-15T06:47:29.654Z,60.70
2023-05-15T06:49:56.382Z,60.72
2023-05-15T06:52:23.250Z,60.42
2023-05-15T06:54:49.894Z,61.47
2023-05-15T06:57:16.447Z,61.24
2023-05-15T06:59:43.072Z,61.98
2023-05-15T07:02:09.690Z,62.22
2023-05-15T07:04:36.522Z,62.08
2023-05-15T07:07:03.133Z,63.77
2023-05-15T07:09:29.815Z,63.75
2023-05-15T07:11:56.431Z,63.72
2023-05-15T07:14:22.998Z,64.04
2023-05-15T07:16:49.617Z,63.49
2023-05-15T07:19:20.964Z,65.01
2023-05-15T07:21:47.744Z,64.96
2023-05-15T07:24:14.305Z,64.40
2023-05-15T07:26:46.936Z,64.71
2023-05-15T07:29:23.943Z,64.23
2023-05-15T07:31:50.619Z,63.70
2023-05-15T07:34:17.297Z,63.21
2023-05-15T07:36:43.959Z,62.01
2023-05-15T07:39:10.733Z,62.02
2023-05-15T07:41:37.308Z,62.02
2023-05-15T07:44:04.054Z,61.61
2023-05-15T07:46:30.719Z,60.86
2023-05-15T07:48:57.391Z,61.05
2023-05-15T07:51:24.086Z,61.11
2023-05-15T07:53:50.726Z,60.78
2023-05-15T07:56:17.364Z,60.38
2023-05-15T07:58:44.244Z,59.62
2023-05-15T08:01:11.286Z,59.30
2023-05-15T08:03:38.043Z,59.59
2023-05-15T08:06:04.993Z,59.12
2023-05-15T08:08:31.664Z,59.13
2023-05-15T08:10:58.221Z,59.54
2023-05-15T08:13:24.802Z,59.50
2023-05-15T08:15:51.524Z,58.19
2023-05-15T08:18:18.096Z,57.90
2023-05-15T08:20:44.618Z,58.60
2023-05-15T08:23:13.326Z,59.43
2023-05-15T08:25:39.952Z,57.53
2023-05-15T08:28:06.678Z,57.92
2023-05-15T08:30:33.302Z,57.56
2023-05-15T08:32:59.927Z,57.66
2023-05-15T08:35:26.860Z,57.68
2023-05-15T08:37:54.067Z,57.86
2023-05-15T08:40:34.456Z,57.00
2023-05-15T08:43:15.599Z,57.81
2023-05-15T08:45:43.162Z,57.93
2023-05-15T08:48:21.149Z,56.84
2023-05-15T08:50:48.698Z,57.30
2023-05-15T08:53:16.036Z,57.68
2023-05-15T08:55:43.147Z,57.10
2023-05-15T08:58:09.986Z,57.22
2023-05-15T09:00:37.435Z,55.43
2023-05-15T09:03:04.197Z,56.90
2023-05-15T09:05:31.394Z,56.39
2023-05-15T09:08:04.291Z,56.87
2023-05-15T09:10:32.379Z,56.24
2023-05-15T09:13:01.493Z,56.11
2023-05-15T09:15:28.277Z,55.79
2023-05-15T09:17:55.438Z,56.39
2023-05-15T09:20:27.683Z,56.36
2023-05-15T09:22:58.503Z,55.59
2023-05-15T09:25:40.340Z,56.18
2023-05-15T09:28:08.728Z,56.31
2023-05-15T09:30:39.304Z,56.43
2023-05-15T09:33:06.136Z,55.25
2023-05-15T09:35:40.533Z,54.64
2023-05-15T09:38:12.769Z,53.96
2023-05-15T09:40:42.884Z,53.42
2023-05-15T09:43:12.330Z,54.56
2023-05-15T09:45:43.262Z,52.63
2023-05-15T09:48:12.156Z,53.00
2023-05-15T09:50:39.794Z,51.78
2023-05-15T09:53:07.014Z,52.38
2023-05-15T09:55:35.058Z,52.68
2023-05-15T09:58:08.423Z,53.52
2023-05-15T10:00:36.077Z,51.52
2023-05-15T10:03:07.179Z,52.37
2023-05-15T10:05:43.135Z,52.38
2023-05-15T10:08:11.278Z,52.46
2023-05-15T10:10:38.342Z,51.67
2023-05-15T10:13:07.806Z,51.91
2023-05-15T10:15:34.889Z,51.17
2023-05-15T10:18:04.502Z,50.47
2023-05-15T10:20:35.450Z,51.20
2023-05-15T10:23:04.771Z,50.92
2023-05-15T10:25:43.991Z,51.04
2023-05-15T10:28:12.057Z,50.62
2023-05-15T10:30:38.905Z,50.20
2023-05-15T10:33:08.012Z,51.31
2023-05-15T10:35:36.341Z,51.10
2023-05-15T10:38:06.698Z,50.36
2023-05-15T10:40:36.584Z,49.23
2023-05-15T10:43:04.862Z,49.75
2023-05-15T10:45:32.328Z,48.17
2023-05-15T10:48:00.033Z,46.08
2023-05-15T10:50:27.327Z,47.64
2023-05-15T10:52:55.809Z,47.07
2023-05-15T10:55:22.976Z,46.42
2023-05-15T10:57:49.748Z,46.23
2023-05-15T11:00:22.446Z,45.90
2023-05-15T11:02:50.771Z,45.55
2023-05-15T11:05:17.463Z,46.45
2023-05-15T11:07:44.138Z,45.65
2023-05-15T11:10:36.447Z,45.74
2023-05-15T11:13:04.380Z,45.51
2023-05-15T11:15:44.871Z,45.95
2023-05-15T11:18:11.887Z,45.54
2023-05-15T11:20:58.661Z,44.33
2023-05-15T11:23:25.507Z,45.93
2023-05-15T11:25:58.695Z,44.69
2023-05-15T11:28:29.219Z,42.96
2023-05-15T11:31:07.884Z,45.25
2023-05-15T11:33:34.618Z,46.54
2023-05-15T11:36:04.507Z,45.70
2023-05-15T11:38:38.496Z,45.18
2023-05-15T11:41:17.667Z,44.56
2023-05-15T11:43:44.639Z,45.19
2023-05-15T11:46:14.198Z,45.21
2023-05-15T11:48:43.324Z,42.93
2023-05-15T11:51:25.734Z,44.27
2023-05-15T11:53:55.335Z,40.83
2023-05-15T11:56:25.739Z,41.32
2023-05-15T11:58:56.872Z,41.18
2023-05-15T12:01:23.908Z,41.86
2023-05-15T12:03:52.025Z,41.40
2023-05-15T12:06:19.016Z,40.85
2023-05-15T12:08:53.128Z,41.26
2023-05-15T12:11:24.757Z,40.63
2023-05-15T12:13:54.160Z,39.82
2023-05-15T12:16:28.403Z,41.06
2023-05-15T12:18:58.311Z,38.84
2023-05-15T12:21:27.946Z,41.08
2023-05-15T12:24:07.165Z,40.08
2023-05-15T12:26:35.726Z,38.63
2023-05-15T12:29:03.480Z,39.66
2023-05-15T12:31:30.382Z,37.82
2023-05-15T12:33:57.305Z,38.98
2023-05-15T12:36:24.053Z,37.49
2023-05-15T12:38:51.265Z,37.80
2023-05-15T12:41:19.896Z,38.25
2023-05-15T12:43:46.593Z,37.92
2023-05-15T12:50:51.496Z,38.87
2023-05-15T12:53:18.128Z,39.03
2023-05-15T12:55:46.456Z,36.83
2023-05-15T12:58:15.650Z,37.21
2023-05-15T13:00:43.419Z,37.11
2023-05-15T13:03:12.069Z,37.34
2023-05-15T13:05:41.952Z,37.41
2023-05-15T13:08:08.507Z,39.37
2023-05-15T13:10:37.687Z,38.07
2023-05-15T13:13:04.432Z,38.90
2023-05-15T13:15:43.934Z,40.70
2023-05-15T13:18:16.023Z,41.20
2023-05-15T13:20:42.727Z,40.45
2023-05-15T13:23:11.764Z,39.28
2023-05-15T13:25:38.789Z,41.33
2023-05-15T13:28:06.710Z,40.28
2023-05-15T13:30:34.520Z,41.55
2023-05-15T13:33:02.094Z,40.50
2023-05-15T13:35:28.940Z,39.59
2023-05-15T13:37:56.627Z,39.38
2023-05-15T13:40:23.828Z,38.18
2023-05-15T13:42:50.771Z,38.48
2023-05-15T13:45:17.467Z,39.11
2023-05-15T13:47:44.951Z,38.05
2023-05-15T13:50:16.132Z,38.30
2023-05-15T13:52:44.793Z,39.10
2023-05-15T13:55:11.937Z,38.14
2023-05-15T13:57:43.147Z,38.65
2023-05-15T14:00:12.790Z,39.50
2023-05-15T14:02:40.894Z,39.72
2023-05-15T14:05:08.317Z,39.59
2023-05-15T14:07:35.042Z,41.01
2023-05-15T14:10:02.118Z,38.80
2023-05-15T14:12:28.859Z,40.60
2023-05-15T14:14:55.597Z,41.70
2023-05-15T14:17:23.256Z,42.33
2023-05-15T14:19:49.926Z,42.27
2023-05-15T14:22:16.513Z,42.34
2023-05-15T14:24:43.182Z,42.37
2023-05-15T14:27:09.829Z,41.91
2023-05-15T14:29:36.693Z,41.00
2023-05-15T14:32:03.359Z,41.41
2023-05-15T14:34:30.208Z,42.08
2023-05-15T14:36:56.706Z,42.22
2023-05-15T14:39:23.387Z,42.31
2023-05-15T14:41:50.370Z,42.65
2023-05-15T14:44:17.123Z,42.00
2023-05-15T14:46:44.190Z,42.71
2023-05-15T14:49:10.983Z,42.53
2023-05-15T14:51:37.910Z,42.63
2023-05-15T14:54:05.000Z,42.67
2023-05-15T14:56:32.167Z,42.35
2023-05-15T14:58:58.807Z,42.73
2023-05-15T15:01:25.789Z,42.76
2023-05-15T15:03:52.917Z,43.03
2023-05-15T15:06:19.745Z,43.44
2023-05-15T15:08:46.383Z,41.85
2023-05-15T15:11:12.987Z,42.23
2023-05-15T15:13:39.580Z,41.92
2023-05-15T15:16:08.171Z,42.68
2023-05-15T15:18:35.148Z,42.92
2023-05-15T15:21:02.012Z,42.23
2023-05-15T15:23:28.639Z,42.31
2023-05-15T15:25:55.220Z,40.84
2023-05-15T15:28:21.770Z,42.13
2023-05-15T15:30:48.406Z,41.68
2023-05-15T15:33:15.133Z,42.43
2023-05-15T15:35:41.781Z,41.81
2023-05-15T15:38:11.381Z,42.36
2023-05-15T15:40:37.899Z,42.47
2023-05-15T15:43:04.762Z,41.17
2023-05-15T15:45:31.410Z,40.22
2023-05-15T15:47:58.101Z,39.89
2023-05-15T15:50:24.862Z,40.63
2023-05-15T15:52:51.720Z,40.86
2023-05-15T15:55:18.358Z,40.24
2023-05-15T15:57:45.121Z,39.46
2023-05-15T16:00:12.707Z,38.28
2023-05-15T16:02:40.689Z,38.70
2023-05-15T16:05:07.809Z,39.19
2023-05-15T16:07:34.834Z,39.45
2023-05-15T16:10:11.402Z,39.67
2023-05-15T16:12:40.725Z,39.63
2023-05-15T16:15:21.561Z,39.11
2023-05-15T16:17:52.312Z,39.87
2023-05-15T16:20:19.547Z,38.86
2023-05-15T16:22:46.188Z,38.37
2023-05-15T16:25:12.890Z,38.38
2023-05-15T16:27:39.552Z,39.33
2023-05-15T16:30:06.765Z,37.95
2023-05-15T16:32:34.035Z,36.69
2023-05-15T16:35:00.884Z,37.41
2023-05-15T16:37:27.578Z,37.87
2023-05-15T16:39:54.173Z,39.39
2023-05-15T16:42:20.827Z,39.80
2023-05-15T16:44:47.422Z,40.66
2023-05-15T16:47:14.116Z,40.87
2023-05-15T16:49:44.036Z,41.02
2023-05-15T16:52:11.231Z,41.29
2023-05-15T16:54:37.915Z,41.64
2023-05-15T16:57:05.011Z,41.05
2023-05-15T16:59:31.683Z,40.65
2023-05-15T17:01:59.274Z,40.35
2023-05-15T17:04:25.935Z,39.97
2023-05-15T17:06:53.403Z,40.61
2023-05-15T17:09:21.140Z,40.26
2023-05-15T17:11:47.880Z,40.20
2023-05-15T17:14:14.563Z,40.28
2023-05-15T17:16:41.205Z,41.12
2023-05-15T17:19:08.269Z,40.91
2023-05-15T17:21:37.205Z,41.14
2023-05-15T17:24:03.964Z,41.42
2023-05-15T17:26:30.554Z,41.02
2023-05-15T17:28:57.052Z,40.47
2023-05-15T17:31:23.870Z,40.44
2023-05-15T17:33:50.713Z,40.60
2023-05-15T17:36:17.647Z,40.35
2023-05-15T17:38:44.528Z,40.15
2023-05-15T17:41:11.246Z,40.51
2023-05-15T17:43:37.798Z,39.72
2023-05-15T17:46:05.549Z,39.96
2023-05-15T17:48:33.446Z,39.90
2023-05-15T17:51:00.394Z,40.70
2023-05-15T17:53:27.070Z,40.52
2023-05-15T17:55:53.769Z,40.84
2023-05-15T17:58:21.221Z,41.84
2023-05-15T18:00:48.021Z,41.97
2023-05-15T18:03:14.758Z,42.35
2023-05-15T18:05:41.583Z,42.36
2023-05-15T18:08:08.142Z,42.85
2023-05-15T18:10:34.828Z,42.89
2023-05-15T18:13:01.405Z,42.39
2023-05-15T18:15:28.236Z,42.41
2023-05-15T18:17:55.034Z,42.38
2023-05-15T18:20:21.833Z,42.45
2023-05-15T18:22:49.504Z,42.37
2023-05-15T18:25:16.298Z,43.39
2023-05-15T18:27:42.979Z,44.08
2023-05-15T18:30:09.961Z,45.16
2023-05-15T18:32:36.659Z,45.77
2023-05-15T18:35:03.746Z,45.70
2023-05-15T18:37:30.510Z,46.00
2023-05-15T18:39:58.625Z,46.56
2023-05-15T18:42:26.073Z,47.10
2023-05-15T18:44:52.859Z,47.44
2023-05-15T18:47:19.504Z,48.21
2023-05-15T18:49:46.737Z,49.21
2023-05-15T18:52:13.403Z,49.79
2023-05-15T18:54:41.433Z,50.22
2023-05-15T18:57:08.282Z,50.85
2023-05-15T18:59:35.024Z,50.86
2023-05-15T19:02:01.806Z,50.68
2023-05-15T19:04:28.425Z,51.20
2023-05-15T19:06:54.949Z,50.95
2023-05-15T19:09:21.559Z,51.45
2023-05-15T19:11:51.596Z,50.95
2023-05-15T19:14:18.564Z,51.19
2023-05-15T19:16:46.082Z,50.72
2023-05-15T19:19:13.354Z,50.86
2023-05-15T19:21:40.030Z,50.90
2023-05-15T19:24:07.032Z,50.65
2023-05-15T19:26:33.742Z,50.65
2023-05-15T19:29:00.445Z,51.22
2023-05-15T19:31:31.553Z,50.75
2023-05-15T19:33:59.104Z,49.98
2023-05-15T19:36:25.798Z,50.22
2023-05-15T19:38:52.789Z,50.36
2023-05-15T19:41:19.363Z,50.35
2023-05-15T19:43:46.948Z,50.09
2023-05-15T19:46:13.749Z,50.66
2023-05-15T19:48:40.600Z,50.87
2023-05-15T19:51:07.291Z,50.42
2023-05-15T19:53:34.349Z,50.02
2023-05-15T19:56:00.958Z,50.45
2023-05-15T19:58:27.800Z,50.15
2023-05-15T20:00:54.636Z,50.62
2023-05-15T20:03:22.137Z,50.25
2023-05-15T20:05:48.852Z,49.80
2023-05-15T20:08:17.011Z,49.95
2023-05-15T20:10:44.404Z,50.14
2023-05-15T20:13:11.515Z,51.09
2023-05-15T20:15:39.768Z,50.65
2023-05-15T20:18:07.232Z,51.27
2023-05-15T20:20:35.676Z,51.09
2023-05-15T20:23:02.275Z,51.04
2023-05-15T20:25:29.606Z,50.77
2023-05-15T20:27:58.437Z,51.65
2023-05-15T20:30:25.402Z,51.62
2023-05-15T20:32:52.256Z,51.67
2023-05-15T20:35:19.588Z,51.74
2023-05-15T20:37:46.209Z,51.62
2023-05-15T20:40:13.043Z,51.92
2023-05-15T20:42:39.959Z,51.54
2023-05-15T20:45:08.507Z,51.29
2023-05-15T20:47:35.787Z,51.98
2023-05-15T20:50:02.362Z,52.42
2023-05-15T20:52:28.901Z,52.65
2023-05-15T20:54:55.385Z,51.08
2023-05-15T20:57:22.356Z,50.96
2023-05-15T20:59:48.881Z,52.13
2023-05-15T21:02:15.926Z,51.52
2023-05-15T21:04:42.921Z,52.16
2023-05-15T21:07:09.865Z,51.54
2023-05-15T21:09:36.401Z,51.71
2023-05-15T21:12:03.838Z,52.05
2023-05-15T21:14:30.612Z,52.03
2023-05-15T21:16:57.548Z,52.63
2023-05-15T21:19:24.245Z,52.52
2023-05-15T21:21:51.007Z,52.43
2023-05-15T21:24:17.742Z,52.28
2023-05-15T21:26:44.316Z,53.11
2023-05-15T21:29:11.152Z,52.91
2023-05-15T21:31:37.780Z,52.65
2023-05-15T21:34:04.362Z,52.83
2023-05-15T21:36:31.277Z,52.29
2023-05-15T21:38:57.890Z,52.80
2023-05-15T21:41:25.873Z,52.59
2023-05-15T21:43:52.529Z,52.96
2023-05-15T21:46:19.250Z,53.50
2023-05-15T21:48:46.438Z,52.48
2023-05-15T21:51:13.005Z,53.60
2023-05-15T21:53:39.682Z,53.00
2023-05-15T21:56:06.718Z,53.49
2023-05-15T21:58:33.252Z,53.47
2023-05-15T22:00:59.916Z,53.56
2023-05-15T22:03:26.881Z,53.53
2023-05-15T22:05:53.710Z,53.39
2023-05-15T22:08:21.060Z,53.80
2023-05-15T22:10:48.325Z,53.42
2023-05-15T22:13:15.362Z,54.08
2023-05-15T22:15:42.098Z,53.77
2023-05-15T22:18:08.772Z,54.71
2023-05-15T22:20:36.050Z,54.79
2023-05-15T22:23:02.807Z,54.57
2023-05-15T22:25:29.416Z,53.74
2023-05-15T22:27:56.012Z,53.18
2023-05-15T22:30:22.787Z,53.17
2023-05-15T22:32:49.299Z,53.48
2023-05-15T22:35:15.984Z,53.65
2023-05-15T22:37:42.631Z,52.91
2023-05-15T22:40:10.499Z,52.71
2023-05-15T22:42:37.328Z,53.17
2023-05-15T22:45:05.829Z,53.43
2023-05-15T22:47:32.959Z,53.08
2023-05-15T22:49:59.615Z,53.80
2023-05-15T22:52:26.326Z,53.86
2023-05-15T22:54:52.940Z,53.45
2023-05-15T22:57:19.554Z,53.45
2023-05-15T22:59:46.626Z,54.30
2023-05-15T23:02:13.156Z,54.09
2023-05-15T23:04:39.879Z,54.22
2023-05-15T23:09:33.674Z,55.56
2023-05-15T23:12:00.595Z,55.12
2023-05-15T23:14:27.199Z,57.12
2023-05-15T23:16:53.710Z,58.17
2023-05-15T23:19:20.696Z,58.90
2023-05-15T23:21:47.512Z,59.29
2023-05-15T23:24:14.120Z,59.59
2023-05-15T23:26:40.639Z,60.57
2023-05-15T23:29:07.249Z,63.21
2023-05-15T23:31:34.089Z,62.88
2023-05-15T23:34:00.869Z,62.41
2023-05-15T23:36:27.479Z,63.07
2023-05-15T23:38:54.266Z,64.85
2023-05-15T23:41:21.913Z,65.79
2023-05-15T23:43:50.402Z,66.19
2023-05-15T23:46:17.605Z,66.98
2023-05-15T23:48:44.345Z,66.38
2023-05-15T23:51:11.205Z,67.79
2023-05-15T23:53:37.793Z,69.18
2023-05-15T23:56:04.667Z,71.87
2023-05-15T23:58:31.219Z,69.91
